< Typhoon 201119 2011 Season Typhoon 201121 >
Typhoon 201120 (BANYAN)
General InformationTrack Information on Google MapsDetailed Wind InformationAccess Analytics MapList of All Images || NewsDisaster Info.WeblogTrackbackTyphoon FrontTwiphoonTyphoon Now!Typhoon ImaginationResourceGoogle EarthGE AnimationAtom FeedGeoJSON
Detalied Best Track (Time Zone = UTC)
Year Month Day Hour Lat. Long. Pressure (hPa) Wind (kt) Class Image Chart
2011 10 9 06 8.1 135.5 1008 0 2 Image Chart
2011 10 9 12 7.8 134.5 1006 0 2 Image Chart
2011 10 9 18 7.3 133.2 1006 0 2 Image Chart
2011 10 10 00 7.3 131.8 1006 0 2 Image Chart
2011 10 10 06 7.2 130.5 1004 0 2 Image Chart
2011 10 10 12 7.4 129.7 1004 0 2 Image Chart
2011 10 10 18 7.7 128.9 1002 35 3 Image Chart
2011 10 11 00 8.1 128.0 1002 35 3 Image Chart
2011 10 11 06 8.7 127.2 1004 0 2 Image Chart
2011 10 11 12 9.6 126.3 1004 0 2 Image Chart
2011 10 11 18 10.7 125.8 1004 0 2 Image Chart
2011 10 12 00 11.5 124.5 1006 0 2 Image Chart
2011 10 12 06 11.6 122.5 1006 0 2 Image Chart
2011 10 12 12 11.6 121.0 1006 0 2 Image Chart
2011 10 12 18 12.0 119.6 1006 0 2 Image Chart
2011 10 13 00 12.7 118.8 1006 0 2 Image Chart
2011 10 13 06 13.6 118.2 1006 0 2 Image Chart
2011 10 13 12 14.5 117.4 1006 0 2 Image Chart
2011 10 13 18 16.0 117.2 1006 0 2 Image Chart
2011 10 14 00 17.3 117.1 1008 0 2 Image Chart
2011 10 14 06 18.2 117.2 1006 0 2 Image Chart
Japan Meteorological Agency Best Track Data | Correction Date : 2011-11-21
< Typhoon 201119 2011 Season Typhoon 201121 >

Help